sensor_id;sensor_type;location;lat;lon;timestamp;pressure;altitude;pressure_sealevel;temperature;humidity
18264;BME280;9258;48.668;9.172;2022-09-02T00:00:15;96645.34;;;15.41;100.00
18264;BME280;9258;48.668;9.172;2022-09-02T00:03:21;96646.38;;;15.40;100.00
18264;BME280;9258;48.668;9.172;2022-09-02T00:06:23;96640.56;;;15.38;100.00
18264;BME280;9258;48.668;9.172;2022-09-02T00:09:25;96641.88;;;15.36;100.00
18264;BME280;9258;48.668;9.172;2022-09-02T00:12:26;96633.16;;;15.35;100.00
18264;BME280;9258;48.668;9.172;2022-09-02T00:15:28;96638.97;;;15.32;100.00
18264;BME280;9258;48.668;9.172;2022-09-02T00:18:31;96628.16;;;15.29;100.00
18264;BME280;9258;48.668;9.172;2022-09-02T00:21:33;96627.84;;;15.25;100.00
18264;BME280;9258;48.668;9.172;2022-09-02T00:24:35;96626.81;;;15.21;100.00
18264;BME280;9258;48.668;9.172;2022-09-02T00:27:37;96619.91;;;15.15;100.00
18264;BME280;9258;48.668;9.172;2022-09-02T00:30:40;96621.69;;;15.09;100.00
18264;BME280;9258;48.668;9.172;2022-09-02T00:33:43;96621.97;;;15.08;100.00
18264;BME280;9258;48.668;9.172;2022-09-02T00:36:45;96619.31;;;15.03;100.00
18264;BME280;9258;48.668;9.172;2022-09-02T00:39:46;96616.63;;;14.98;100.00
18264;BME280;9258;48.668;9.172;2022-09-02T00:42:48;96616.63;;;14.98;100.00
18264;BME280;9258;48.668;9.172;2022-09-02T00:45:50;96617.44;;;14.98;100.00
18264;BME280;9258;48.668;9.172;2022-09-02T00:48:56;96614.28;;;15.01;100.00
18264;BME280;9258;48.668;9.172;2022-09-02T00:52:02;96616.63;;;14.98;100.00
18264;BME280;9258;48.668;9.172;2022-09-02T00:55:09;96608.72;;;14.93;100.00
18264;BME280;9258;48.668;9.172;2022-09-02T00:58:15;96606.34;;;14.91;100.00
18264;BME280;9258;48.668;9.172;2022-09-02T01:01:18;96606.84;;;14.88;100.00
18264;BME280;9258;48.668;9.172;2022-09-02T01:04:22;96610.25;;;14.84;100.00
18264;BME280;9258;48.668;9.172;2022-09-02T01:07:27;96610.19;;;14.78;100.00
18264;BME280;9258;48.668;9.172;2022-09-02T01:10:31;96613.34;;;14.75;100.00
18264;BME280;9258;48.668;9.172;2022-09-02T01:13:41;96617.28;;;14.73;100.00
18264;BME280;9258;48.668;9.172;2022-09-02T01:16:45;96617.53;;;14.71;100.00
18264;BME280;9258;48.668;9.172;2022-09-02T01:19:52;96615.94;;;14.70;100.00
18264;BME280;9258;48.668;9.172;2022-09-02T01:22:56;96609.88;;;14.70;100.00
18264;BME280;9258;48.668;9.172;2022-09-02T01:25:58;96612.78;;;14.68;100.00
18264;BME280;9258;48.668;9.172;2022-09-02T01:28:59;96617.78;;;14.70;100.00
18264;BME280;9258;48.668;9.172;2022-09-02T01:32:01;96613.03;;;14.67;100.00
18264;BME280;9258;48.668;9.172;2022-09-02T01:35:05;96611.97;;;14.68;100.00
18264;BME280;9258;48.668;9.172;2022-09-02T01:38:08;96605.13;;;14.67;100.00
18264;BME280;9258;48.668;9.172;2022-09-02T01:41:10;96611.69;;;14.64;100.00
18264;BME280;9258;48.668;9.172;2022-09-02T01:44:12;96617.44;;;14.61;100.00
18264;BME280;9258;48.668;9.172;2022-09-02T01:47:17;96615.88;;;14.60;100.00
18264;BME280;9258;48.668;9.172;2022-09-02T01:50:20;96615.31;;;14.58;100.00
18264;BME280;9258;48.668;9.172;2022-09-02T01:53:23;96616.88;;;14.54;100.00
18264;BME280;9258;48.668;9.172;2022-09-02T01:56:25;96615.53;;;14.52;100.00
18264;BME280;9258;48.668;9.172;2022-09-02T01:59:26;96608.66;;;14.51;100.00
18264;BME280;9258;48.668;9.172;2022-09-02T02:02:28;96601.81;;;14.45;100.00
18264;BME280;9258;48.668;9.172;2022-09-02T02:05:30;96604.38;;;14.39;100.00
18264;BME280;9258;48.668;9.172;2022-09-02T02:08:33;96611.97;;;14.36;100.00
18264;BME280;9258;48.668;9.172;2022-09-02T02:11:35;96606.66;;;14.31;100.00
18264;BME280;9258;48.668;9.172;2022-09-02T02:14:37;96612.41;;;14.28;100.00
18264;BME280;9258;48.668;9.172;2022-09-02T02:17:39;96607.91;;;14.23;100.00
18264;BME280;9258;48.668;9.172;2022-09-02T02:20:41;96604.72;;;14.21;100.00
18264;BME280;9258;48.668;9.172;2022-09-02T02:23:44;96601.78;;;14.18;100.00
18264;BME280;9258;48.668;9.172;2022-09-02T02:26:46;96598.63;;;14.16;100.00
18264;BME280;9258;48.668;9.172;2022-09-02T02:29:47;96608.59;;;14.14;100.00
18264;BME280;9258;48.668;9.172;2022-09-02T02:32:49;96601.97;;;14.06;100.00
18264;BME280;9258;48.668;9.172;2022-09-02T02:35:51;96599.03;;;14.02;100.00
18264;BME280;9258;48.668;9.172;2022-09-02T02:38:54;96601.13;;;14.00;100.00
18264;BME280;9258;48.668;9.172;2022-09-02T02:41:55;96595.00;;;13.95;100.00
18264;BME280;9258;48.668;9.172;2022-09-02T02:44:57;96596.84;;;13.94;100.00
18264;BME280;9258;48.668;9.172;2022-09-02T02:47:58;96588.97;;;13.94;100.00
18264;BME280;9258;48.668;9.172;2022-09-02T02:51:00;96596.78;;;13.89;100.00
18264;BME280;9258;48.668;9.172;2022-09-02T02:54:04;96595.16;;;13.83;100.00
18264;BME280;9258;48.668;9.172;2022-09-02T02:57:07;96595.09;;;13.78;100.00
18264;BME280;9258;48.668;9.172;2022-09-02T03:00:12;96596.34;;;13.70;100.00
18264;BME280;9258;48.668;9.172;2022-09-02T03:03:14;96584.97;;;13.65;100.00
18264;BME280;9258;48.668;9.172;2022-09-02T03:06:18;96589.16;;;13.61;100.00
18264;BME280;9258;48.668;9.172;2022-09-02T03:09:21;96585.97;;;13.59;100.00
18264;BME280;9258;48.668;9.172;2022-09-02T03:12:23;96588.59;;;13.59;100.00
18264;BME280;9258;48.668;9.172;2022-09-02T03:15:26;96589.31;;;13.54;100.00
18264;BME280;9258;48.668;9.172;2022-09-02T03:18:27;96600.06;;;13.53;100.00
18264;BME280;9258;48.668;9.172;2022-09-02T03:21:29;96582.19;;;13.50;100.00
18264;BME280;9258;48.668;9.172;2022-09-02T03:24:32;96582.69;;;13.47;100.00
18264;BME280;9258;48.668;9.172;2022-09-02T03:27:35;96590.81;;;13.45;100.00
18264;BME280;9258;48.668;9.172;2022-09-02T03:30:38;96576.63;;;13.46;100.00
18264;BME280;9258;48.668;9.172;2022-09-02T03:33:40;96579.97;;;13.42;100.00
18264;BME280;9258;48.668;9.172;2022-09-02T03:36:41;96583.41;;;13.42;100.00
18264;BME280;9258;48.668;9.172;2022-09-02T03:39:45;96587.03;;;13.36;100.00
18264;BME280;9258;48.668;9.172;2022-09-02T03:42:47;96581.22;;;13.34;100.00
18264;BME280;9258;48.668;9.172;2022-09-02T03:45:49;96581.16;;;13.29;100.00
18264;BME280;9258;48.668;9.172;2022-09-02T03:48:50;96574.03;;;13.24;100.00
18264;BME280;9258;48.668;9.172;2022-09-02T03:51:52;96580.78;;;13.20;100.00
18264;BME280;9258;48.668;9.172;2022-09-02T03:54:55;96578.63;;;13.17;100.00
18264;BME280;9258;48.668;9.172;2022-09-02T03:57:57;96574.91;;;13.13;100.00
18264;BME280;9258;48.668;9.172;2022-09-02T04:00:58;96578.00;;;13.10;100.00
18264;BME280;9258;48.668;9.172;2022-09-02T04:04:00;96576.66;;;13.08;100.00
18264;BME280;9258;48.668;9.172;2022-09-02T04:07:03;96579.75;;;13.05;100.00
18264;BME280;9258;48.668;9.172;2022-09-02T04:10:07;96575.81;;;13.02;100.00
18264;BME280;9258;48.668;9.172;2022-09-02T04:13:09;96588.63;;;12.98;100.00
18264;BME280;9258;48.668;9.172;2022-09-02T04:16:12;96585.19;;;12.98;100.00
18264;BME280;9258;48.668;9.172;2022-09-02T04:19:13;96582.00;;;12.96;100.00
18264;BME280;9258;48.668;9.172;2022-09-02T04:22:15;96582.00;;;12.96;100.00
18264;BME280;9258;48.668;9.172;2022-09-02T04:25:18;96580.44;;;12.95;100.00
18264;BME280;9258;48.668;9.172;2022-09-02T04:28:19;96579.38;;;12.96;100.00
18264;BME280;9258;48.668;9.172;2022-09-02T04:31:23;96582.25;;;12.94;100.00
18264;BME280;9258;48.668;9.172;2022-09-02T04:34:25;96585.69;;;12.95;100.00
18264;BME280;9258;48.668;9.172;2022-09-02T04:37:26;96575.97;;;12.95;100.00
18264;BME280;9258;48.668;9.172;2022-09-02T04:40:29;96571.75;;;12.94;100.00
18264;BME280;9258;48.668;9.172;2022-09-02T04:43:31;96582.25;;;12.94;100.00
18264;BME280;9258;48.668;9.172;2022-09-02T04:46:32;96583.38;;;12.98;100.00
18264;BME280;9258;48.668;9.172;2022-09-02T04:49:34;96573.44;;;13.01;100.00
18264;BME280;9258;48.668;9.172;2022-09-02T04:52:36;96574.22;;;13.01;100.00
18264;BME280;9258;48.668;9.172;2022-09-02T04:55:39;96570.84;;;13.06;100.00
18264;BME280;9258;48.668;9.172;2022-09-02T04:58:41;96575.06;;;13.07;100.00
18264;BME280;9258;48.668;9.172;2022-09-02T05:01:45;96575.22;;;13.17;100.00
18264;BME280;9258;48.668;9.172;2022-09-02T05:04:46;96580.06;;;13.25;100.00
18264;BME280;9258;48.668;9.172;2022-09-02T05:07:48;96581.94;;;13.29;100.00
18264;BME280;9258;48.668;9.172;2022-09-02T05:10:51;96583.38;;;13.37;100.00
18264;BME280;9258;48.668;9.172;2022-09-02T05:13:54;96575.53;;;13.42;100.00
18264;BME280;9258;48.668;9.172;2022-09-02T05:16:56;96570.09;;;13.49;100.00
18264;BME280;9258;48.668;9.172;2022-09-02T05:19:59;96575.94;;;13.56;100.00
18264;BME280;9258;48.668;9.172;2022-09-02T05:23:01;96578.41;;;13.62;100.00
18264;BME280;9258;48.668;9.172;2022-09-02T05:26:04;96576.34;;;13.69;100.00
18264;BME280;9258;48.668;9.172;2022-09-02T05:29:06;96577.75;;;13.77;100.00
18264;BME280;9258;48.668;9.172;2022-09-02T05:32:09;96577.31;;;13.85;100.00
18264;BME280;9258;48.668;9.172;2022-09-02T05:35:10;96577.66;;;13.94;100.00
18264;BME280;9258;48.668;9.172;2022-09-02T05:38:12;96579.56;;;14.03;100.00
18264;BME280;9258;48.668;9.172;2022-09-02T05:41:17;96574.94;;;14.16;100.00
18264;BME280;9258;48.668;9.172;2022-09-02T05:44:22;96577.94;;;14.24;100.00
18264;BME280;9258;48.668;9.172;2022-09-02T05:47:23;96579.09;;;14.38;100.00
18264;BME280;9258;48.668;9.172;2022-09-02T05:50:25;96579.72;;;14.51;100.00
18264;BME280;9258;48.668;9.172;2022-09-02T05:53:27;96575.38;;;14.66;100.00
18264;BME280;9258;48.668;9.172;2022-09-02T05:56:30;96576.22;;;14.77;100.00
18264;BME280;9258;48.668;9.172;2022-09-02T05:59:32;96575.28;;;14.93;100.00
18264;BME280;9258;48.668;9.172;2022-09-02T06:02:38;96576.88;;;14.99;100.00
18264;BME280;9258;48.668;9.172;2022-09-02T06:05:39;96572.19;;;15.06;100.00
18264;BME280;9258;48.668;9.172;2022-09-02T06:08:41;96575.41;;;15.19;100.00
18264;BME280;9258;48.668;9.172;2022-09-02T06:11:45;96577.84;;;15.35;100.00
18264;BME280;9258;48.668;9.172;2022-09-02T06:14:48;96579.47;;;15.46;100.00
18264;BME280;9258;48.668;9.172;2022-09-02T06:17:50;96581.66;;;15.55;100.00
18264;BME280;9258;48.668;9.172;2022-09-02T06:20:51;96576.94;;;15.67;100.00
18264;BME280;9258;48.668;9.172;2022-09-02T06:23:53;96576.44;;;15.85;99.09
18264;BME280;9258;48.668;9.172;2022-09-02T06:26:58;96580.16;;;15.94;98.87
18264;BME280;9258;48.668;9.172;2022-09-02T06:30:00;96570.66;;;15.98;99.70
18264;BME280;9258;48.668;9.172;2022-09-02T06:33:02;96571.47;;;16.09;99.09
18264;BME280;9258;48.668;9.172;2022-09-02T06:36:05;96572.56;;;16.18;100.00
18264;BME280;9258;48.668;9.172;2022-09-02T06:39:09;96574.13;;;16.39;96.25
18264;BME280;9258;48.668;9.172;2022-09-02T06:42:13;96569.38;;;16.51;97.35
18264;BME280;9258;48.668;9.172;2022-09-02T06:45:15;96570.19;;;16.62;95.22
18264;BME280;9258;48.668;9.172;2022-09-02T06:48:16;96562.19;;;16.92;95.53
18264;BME280;9258;48.668;9.172;2022-09-02T06:51:20;96567.84;;;17.45;88.70
18264;BME280;9258;48.668;9.172;2022-09-02T06:54:23;96565.47;;;17.98;83.94
18264;BME280;9258;48.668;9.172;2022-09-02T06:57:26;96569.28;;;18.50;82.96
18264;BME280;9258;48.668;9.172;2022-09-02T07:00:27;96567.78;;;19.01;80.60
18264;BME280;9258;48.668;9.172;2022-09-02T07:03:30;96563.13;;;19.60;74.46
18264;BME280;9258;48.668;9.172;2022-09-02T07:06:53;96566.94;;;20.10;72.27
18264;BME280;9258;48.668;9.172;2022-09-02T07:09:55;96567.53;;;20.58;68.96
18264;BME280;9258;48.668;9.172;2022-09-02T07:12:58;96566.16;;;21.07;64.68
18264;BME280;9258;48.668;9.172;2022-09-02T07:16:00;96558.28;;;21.43;62.95
18264;BME280;9258;48.668;9.172;2022-09-02T07:19:02;96556.13;;;21.95;62.08
18264;BME280;9258;48.668;9.172;2022-09-02T07:22:04;96555.97;;;22.36;58.94
18264;BME280;9258;48.668;9.172;2022-09-02T07:25:07;96552.81;;;22.78;55.85
18264;BME280;9258;48.668;9.172;2022-09-02T07:28:10;96551.78;;;22.96;54.03
18264;BME280;9258;48.668;9.172;2022-09-02T07:31:13;96563.88;;;23.33;55.04
18264;BME280;9258;48.668;9.172;2022-09-02T07:34:16;96558.97;;;23.75;50.32
18264;BME280;9258;48.668;9.172;2022-09-02T07:37:17;96556.19;;;24.23;50.14
18264;BME280;9258;48.668;9.172;2022-09-02T07:40:19;96548.78;;;24.37;48.76
18264;BME280;9258;48.668;9.172;2022-09-02T07:43:22;96555.56;;;24.90;47.83
18264;BME280;9258;48.668;9.172;2022-09-02T07:46:23;96561.69;;;25.08;44.89
18264;BME280;9258;48.668;9.172;2022-09-02T07:49:25;96560.88;;;25.45;44.98
18264;BME280;9258;48.668;9.172;2022-09-02T07:52:27;96556.03;;;25.68;43.45
18264;BME280;9258;48.668;9.172;2022-09-02T07:55:29;96554.03;;;26.07;43.12
18264;BME280;9258;48.668;9.172;2022-09-02T07:58:32;96551.34;;;26.07;42.61
18264;BME280;9258;48.668;9.172;2022-09-02T08:01:34;96549.38;;;26.37;42.38
18264;BME280;9258;48.668;9.172;2022-09-02T08:04:36;96551.69;;;26.59;42.10
18264;BME280;9258;48.668;9.172;2022-09-02T08:07:37;96553.31;;;26.84;40.75
18264;BME280;9258;48.668;9.172;2022-09-02T08:10:39;96554.72;;;27.15;40.97
18264;BME280;9258;48.668;9.172;2022-09-02T08:13:43;96556.06;;;27.57;39.24
18264;BME280;9258;48.668;9.172;2022-09-02T08:16:45;96550.16;;;28.04;39.30
18264;BME280;9258;48.668;9.172;2022-09-02T08:19:47;96553.97;;;28.43;37.58
18264;BME280;9258;48.668;9.172;2022-09-02T08:22:49;96564.06;;;28.46;37.63
18264;BME280;9258;48.668;9.172;2022-09-02T08:25:50;96571.28;;;28.58;37.10
18264;BME280;9258;48.668;9.172;2022-09-02T08:28:54;96573.81;;;29.10;35.38
18264;BME280;9258;48.668;9.172;2022-09-02T08:31:55;96566.25;;;29.47;35.42
18264;BME280;9258;48.668;9.172;2022-09-02T08:34:57;96561.00;;;29.70;35.07
18264;BME280;9258;48.668;9.172;2022-09-02T08:37:58;96559.00;;;30.21;34.57
18264;BME280;9258;48.668;9.172;2022-09-02T08:41:00;96558.59;;;30.19;34.15
18264;BME280;9258;48.668;9.172;2022-09-02T08:44:04;96555.13;;;30.19;33.24
18264;BME280;9258;48.668;9.172;2022-09-02T08:47:10;96555.41;;;30.14;33.43
18264;BME280;9258;48.668;9.172;2022-09-02T08:50:14;96548.88;;;30.53;32.39
18264;BME280;9258;48.668;9.172;2022-09-02T08:53:18;96542.97;;;30.67;32.39
18264;BME280;9258;48.668;9.172;2022-09-02T08:56:26;96548.97;;;31.02;32.43
18264;BME280;9258;48.668;9.172;2022-09-02T08:59:30;96540.97;;;31.32;31.46
18264;BME280;9258;48.668;9.172;2022-09-02T09:02:38;96535.72;;;31.43;30.63
18264;BME280;9258;48.668;9.172;2022-09-02T09:05:48;96542.44;;;31.52;30.49
18264;BME280;9258;48.668;9.172;2022-09-02T09:08:56;96535.47;;;31.78;30.63
18264;BME280;9258;48.668;9.172;2022-09-02T09:12:04;96538.97;;;32.08;29.92
18264;BME280;9258;48.668;9.172;2022-09-02T09:15:15;96540.91;;;32.08;29.68
18264;BME280;9258;48.668;9.172;2022-09-02T09:18:28;96525.41;;;32.35;28.82
18264;BME280;9258;48.668;9.172;2022-09-02T09:21:31;96528.94;;;32.42;29.26
18264;BME280;9258;48.668;9.172;2022-09-02T09:24:36;96525.75;;;32.70;28.58
18264;BME280;9258;48.668;9.172;2022-09-02T09:27:38;96525.81;;;33.18;28.29
18264;BME280;9258;48.668;9.172;2022-09-02T09:30:41;96523.03;;;33.07;27.39
18264;BME280;9258;48.668;9.172;2022-09-02T09:33:56;96523.50;;;32.72;27.28
18264;BME280;9258;48.668;9.172;2022-09-02T09:36:58;96516.84;;;33.14;27.43
18264;BME280;9258;48.668;9.172;2022-09-02T09:40:00;96515.25;;;33.57;26.59
18264;BME280;9258;48.668;9.172;2022-09-02T09:43:12;96511.22;;;34.06;25.27
18264;BME280;9258;48.668;9.172;2022-09-02T09:46:25;96513.84;;;33.77;25.37
18264;BME280;9258;48.668;9.172;2022-09-02T09:49:27;96507.69;;;33.87;25.04
18264;BME280;9258;48.668;9.172;2022-09-02T09:52:29;96507.69;;;33.87;24.88
18264;BME280;9258;48.668;9.172;2022-09-02T09:55:31;96508.13;;;34.00;25.41
18264;BME280;9258;48.668;9.172;2022-09-02T09:58:34;96499.75;;;34.41;24.34
18264;BME280;9258;48.668;9.172;2022-09-02T10:01:37;96498.19;;;34.29;24.18
18264;BME280;9258;48.668;9.172;2022-09-02T10:04:39;96499.03;;;34.79;23.87
18264;BME280;9258;48.668;9.172;2022-09-02T10:07:42;96486.63;;;35.07;22.85
18264;BME280;9258;48.668;9.172;2022-09-02T10:10:55;96490.53;;;35.09;22.56
18264;BME280;9258;48.668;9.172;2022-09-02T10:13:59;96487.38;;;35.14;22.99
18264;BME280;9258;48.668;9.172;2022-09-02T10:17:14;96490.53;;;35.37;22.61
18264;BME280;9258;48.668;9.172;2022-09-02T10:20:20;96492.44;;;35.41;22.33
18264;BME280;9258;48.668;9.172;2022-09-02T10:23:37;96496.25;;;35.79;22.08
18264;BME280;9258;48.668;9.172;2022-09-02T10:26:46;96493.63;;;35.22;21.58
18264;BME280;9258;48.668;9.172;2022-09-02T10:29:54;96483.44;;;35.65;22.19
18264;BME280;9258;48.668;9.172;2022-09-02T10:33:18;96482.66;;;35.79;22.15
18264;BME280;9258;48.668;9.172;2022-09-02T10:36:27;96476.47;;;35.60;21.90
18264;BME280;9258;48.668;9.172;2022-09-02T10:39:42;96477.59;;;35.70;21.87
18264;BME280;9258;48.668;9.172;2022-09-02T10:42:58;96473.59;;;36.03;21.23
18264;BME280;9258;48.668;9.172;2022-09-02T10:46:05;96471.78;;;36.52;21.08
18264;BME280;9258;48.668;9.172;2022-09-02T10:49:14;96463.41;;;36.18;21.48
18264;BME280;9258;48.668;9.172;2022-09-02T10:52:57;96466.41;;;36.44;21.20
18264;BME280;9258;48.668;9.172;2022-09-02T10:56:04;96452.78;;;36.44;21.14
18264;BME280;9258;48.668;9.172;2022-09-02T10:59:11;96445.38;;;36.45;21.06
18264;BME280;9258;48.668;9.172;2022-09-02T11:02:16;96450.19;;;36.82;20.12
18264;BME280;9258;48.668;9.172;2022-09-02T11:05:23;96439.09;;;36.48;20.08
18264;BME280;9258;48.668;9.172;2022-09-02T11:08:34;96432.06;;;36.54;21.00
18264;BME280;9258;48.668;9.172;2022-09-02T11:11:40;96440.16;;;37.17;19.98
18264;BME280;9258;48.668;9.172;2022-09-02T11:14:52;96435.50;;;36.62;20.33
18264;BME280;9258;48.668;9.172;2022-09-02T11:18:01;96436.56;;;36.82;19.96
18264;BME280;9258;48.668;9.172;2022-09-02T11:21:09;96429.00;;;36.97;19.41
18264;BME280;9258;48.668;9.172;2022-09-02T11:24:21;96419.53;;;37.49;19.42
18264;BME280;9258;48.668;9.172;2022-09-02T11:27:30;96416.84;;;37.46;19.95
18264;BME280;9258;48.668;9.172;2022-09-02T11:30:38;96419.75;;;36.87;20.33
18264;BME280;9258;48.668;9.172;2022-09-02T11:33:49;96430.22;;;37.33;20.58
18264;BME280;9258;48.668;9.172;2022-09-02T11:36:54;96420.88;;;37.68;19.60
18264;BME280;9258;48.668;9.172;2022-09-02T11:39:59;96406.50;;;37.30;21.07
18264;BME280;9258;48.668;9.172;2022-09-02T11:43:19;96422.69;;;37.44;21.13
18264;BME280;9258;48.668;9.172;2022-09-02T11:46:33;96418.31;;;37.88;20.44
18264;BME280;9258;48.668;9.172;2022-09-02T11:50:02;96416.56;;;37.71;19.73
18264;BME280;9258;48.668;9.172;2022-09-02T11:53:19;96420.09;;;37.34;20.28
18264;BME280;9258;48.668;9.172;2022-09-02T11:56:27;96422.22;;;37.87;19.38
18264;BME280;9258;48.668;9.172;2022-09-02T12:00:03;96420.34;;;37.46;20.27
18264;BME280;9258;48.668;9.172;2022-09-02T12:03:12;96413.66;;;37.85;19.93
18264;BME280;9258;48.668;9.172;2022-09-02T12:06:19;96415.41;;;38.02;19.41
18264;BME280;9258;48.668;9.172;2022-09-02T12:09:43;96407.22;;;38.29;19.86
18264;BME280;9258;48.668;9.172;2022-09-02T12:13:02;96417.50;;;37.91;20.07
18264;BME280;9258;48.668;9.172;2022-09-02T12:19:53;96410.00;;;37.95;20.79
18264;BME280;9258;48.668;9.172;2022-09-02T12:22:55;96415.94;;;38.20;19.77
18264;BME280;9258;48.668;9.172;2022-09-02T12:26:00;96412.09;;;37.84;20.53
18264;BME280;9258;48.668;9.172;2022-09-02T12:29:10;96409.28;;;37.23;21.74
18264;BME280;9258;48.668;9.172;2022-09-02T12:32:12;96399.59;;;36.19;21.40
18264;BME280;9258;48.668;9.172;2022-09-02T12:35:48;96401.13;;;36.78;20.77
18264;BME280;9258;48.668;9.172;2022-09-02T12:38:52;96393.63;;;36.41;20.64
18264;BME280;9258;48.668;9.172;2022-09-02T12:41:59;96390.59;;;35.42;21.85
18264;BME280;9258;48.668;9.172;2022-09-02T12:45:05;96383.25;;;35.35;22.48
18264;BME280;9258;48.668;9.172;2022-09-02T12:48:12;96384.88;;;34.83;23.50
18264;BME280;9258;48.668;9.172;2022-09-02T12:54:50;96375.16;;;33.20;25.28
18264;BME280;9258;48.668;9.172;2022-09-02T12:57:54;96367.97;;;32.87;26.40
18264;BME280;9258;48.668;9.172;2022-09-02T13:01:13;96368.63;;;32.70;25.84
18264;BME280;9258;48.668;9.172;2022-09-02T13:04:24;96359.75;;;32.73;25.54
18264;BME280;9258;48.668;9.172;2022-09-02T13:08:00;96366.53;;;33.04;26.23
18264;BME280;9258;48.668;9.172;2022-09-02T13:19:05;96348.28;;;32.94;25.94
18264;BME280;9258;48.668;9.172;2022-09-02T13:33:15;96322.81;;;32.47;27.00
18264;BME280;9258;48.668;9.172;2022-09-02T13:36:25;96330.66;;;32.67;26.37
18264;BME280;9258;48.668;9.172;2022-09-02T13:39:27;96309.09;;;33.57;25.59
18264;BME280;9258;48.668;9.172;2022-09-02T13:42:29;96298.63;;;33.55;25.20
18264;BME280;9258;48.668;9.172;2022-09-02T13:45:33;96307.06;;;33.29;25.19
18264;BME280;9258;48.668;9.172;2022-09-02T13:48:38;96317.69;;;32.90;26.42
18264;BME280;9258;48.668;9.172;2022-09-02T13:51:41;96309.53;;;32.32;26.82
18264;BME280;9258;48.668;9.172;2022-09-02T13:54:45;96302.72;;;31.67;27.60
18264;BME280;9258;48.668;9.172;2022-09-02T13:57:54;96291.69;;;31.12;27.79
18264;BME280;9258;48.668;9.172;2022-09-02T14:01:15;96288.97;;;30.56;28.30
18264;BME280;9258;48.668;9.172;2022-09-02T14:04:17;96281.06;;;30.21;30.03
18264;BME280;9258;48.668;9.172;2022-09-02T14:07:25;96286.19;;;30.26;30.19
18264;BME280;9258;48.668;9.172;2022-09-02T14:10:27;96283.16;;;29.86;29.55
18264;BME280;9258;48.668;9.172;2022-09-02T14:13:30;96276.06;;;29.35;30.93
18264;BME280;9258;48.668;9.172;2022-09-02T14:16:33;96265.97;;;29.10;30.97
18264;BME280;9258;48.668;9.172;2022-09-02T14:19:35;96258.81;;;29.17;30.78
18264;BME280;9258;48.668;9.172;2022-09-02T14:22:38;96253.22;;;29.07;31.47
18264;BME280;9258;48.668;9.172;2022-09-02T14:25:48;96256.66;;;29.26;29.99
18264;BME280;9258;48.668;9.172;2022-09-02T14:28:51;96250.34;;;28.99;31.07
18264;BME280;9258;48.668;9.172;2022-09-02T14:32:08;96248.94;;;28.86;31.52
18264;BME280;9258;48.668;9.172;2022-09-02T14:35:19;96245.00;;;28.64;31.24
18264;BME280;9258;48.668;9.172;2022-09-02T14:38:23;96237.66;;;29.00;30.54
18264;BME280;9258;48.668;9.172;2022-09-02T14:41:26;96239.44;;;29.12;30.69
18264;BME280;9258;48.668;9.172;2022-09-02T14:44:30;96239.44;;;29.31;30.13
18264;BME280;9258;48.668;9.172;2022-09-02T14:47:36;96248.94;;;28.86;30.60
18264;BME280;9258;48.668;9.172;2022-09-02T14:50:38;96240.50;;;28.53;31.41
18264;BME280;9258;48.668;9.172;2022-09-02T14:53:42;96236.00;;;28.22;31.60
18264;BME280;9258;48.668;9.172;2022-09-02T14:56:47;96238.50;;;27.83;32.47
18264;BME280;9258;48.668;9.172;2022-09-02T14:59:50;96240.25;;;27.76;32.53
18264;BME280;9258;48.668;9.172;2022-09-02T15:02:54;96225.94;;;27.72;33.07
18264;BME280;9258;48.668;9.172;2022-09-02T15:05:59;96221.53;;;27.64;33.26
18264;BME280;9258;48.668;9.172;2022-09-02T15:09:02;96223.81;;;27.49;34.32
18264;BME280;9258;48.668;9.172;2022-09-02T15:12:04;96221.63;;;27.39;34.23
18264;BME280;9258;48.668;9.172;2022-09-02T15:15:06;96217.53;;;27.30;33.71
18264;BME280;9258;48.668;9.172;2022-09-02T15:18:07;96215.41;;;27.07;34.56
18264;BME280;9258;48.668;9.172;2022-09-02T15:21:09;96218.88;;;27.08;34.21
18264;BME280;9258;48.668;9.172;2022-09-02T15:24:12;96217.03;;;26.96;34.37
18264;BME280;9258;48.668;9.172;2022-09-02T15:27:14;96227.69;;;26.80;34.59
18264;BME280;9258;48.668;9.172;2022-09-02T15:30:15;96238.00;;;26.66;34.80
18264;BME280;9258;48.668;9.172;2022-09-02T15:33:17;96248.16;;;26.73;34.15
18264;BME280;9258;48.668;9.172;2022-09-02T15:36:19;96251.53;;;26.58;35.05
18264;BME280;9258;48.668;9.172;2022-09-02T15:39:22;96263.25;;;26.77;34.24
18264;BME280;9258;48.668;9.172;2022-09-02T15:42:23;96257.81;;;26.62;34.93
18264;BME280;9258;48.668;9.172;2022-09-02T15:45:25;96250.25;;;26.39;35.07
18264;BME280;9258;48.668;9.172;2022-09-02T15:48:28;96250.25;;;26.39;35.90
18264;BME280;9258;48.668;9.172;2022-09-02T15:51:33;96237.94;;;26.14;36.60
18264;BME280;9258;48.668;9.172;2022-09-02T15:54:36;96235.84;;;25.95;35.49
18264;BME280;9258;48.668;9.172;2022-09-02T15:57:37;96237.81;;;25.86;36.48
18264;BME280;9258;48.668;9.172;2022-09-02T16:00:39;96224.88;;;25.76;35.72
18264;BME280;9258;48.668;9.172;2022-09-02T16:03:41;96221.59;;;25.58;36.16
18264;BME280;9258;48.668;9.172;2022-09-02T16:06:44;96208.72;;;25.52;36.70
18264;BME280;9258;48.668;9.172;2022-09-02T16:09:48;96214.03;;;25.27;37.88
18264;BME280;9258;48.668;9.172;2022-09-02T16:12:49;96224.28;;;25.25;37.66
18264;BME280;9258;48.668;9.172;2022-09-02T16:15:58;96228.50;;;25.14;37.57
18264;BME280;9258;48.668;9.172;2022-09-02T16:19:01;96229.69;;;25.04;37.43
18264;BME280;9258;48.668;9.172;2022-09-02T16:22:03;96221.88;;;24.99;37.24
18264;BME280;9258;48.668;9.172;2022-09-02T16:25:07;96224.59;;;24.91;37.72
18264;BME280;9258;48.668;9.172;2022-09-02T16:28:08;96219.63;;;24.81;37.61
18264;BME280;9258;48.668;9.172;2022-09-02T16:31:13;96224.47;;;24.66;39.18
18264;BME280;9258;48.668;9.172;2022-09-02T16:34:17;96221.63;;;24.51;39.90
18264;BME280;9258;48.668;9.172;2022-09-02T16:37:19;96219.38;;;24.32;40.11
18264;BME280;9258;48.668;9.172;2022-09-02T16:40:22;96222.38;;;24.30;39.84
18264;BME280;9258;48.668;9.172;2022-09-02T16:43:24;96218.44;;;24.28;39.53
18264;BME280;9258;48.668;9.172;2022-09-02T16:46:27;96218.31;;;24.24;40.74
18264;BME280;9258;48.668;9.172;2022-09-02T16:49:29;96226.03;;;24.17;40.63
18264;BME280;9258;48.668;9.172;2022-09-02T16:52:30;96230.06;;;24.02;41.04